sensor_id;sensor_type;location;lat;lon;timestamp;temperature;humidity
9450;DHT22;4763;48.370;10.874;2022-07-05T00:01:30;19.30;99.90
9450;DHT22;4763;48.370;10.874;2022-07-05T00:03:57;19.30;99.90
9450;DHT22;4763;48.370;10.874;2022-07-05T00:06:24;19.20;99.90
9450;DHT22;4763;48.370;10.874;2022-07-05T00:08:51;19.30;99.90
9450;DHT22;4763;48.370;10.874;2022-07-05T00:11:19;19.20;99.90
9450;DHT22;4763;48.370;10.874;2022-07-05T00:13:46;19.20;99.90
9450;DHT22;4763;48.370;10.874;2022-07-05T00:16:13;19.30;99.90
9450;DHT22;4763;48.370;10.874;2022-07-05T00:18:40;19.30;99.90
9450;DHT22;4763;48.370;10.874;2022-07-05T00:21:07;19.30;99.90
9450;DHT22;4763;48.370;10.874;2022-07-05T00:23:34;19.20;99.90
9450;DHT22;4763;48.370;10.874;2022-07-05T00:26:01;19.20;99.90
9450;DHT22;4763;48.370;10.874;2022-07-05T00:28:29;19.10;99.90
9450;DHT22;4763;48.370;10.874;2022-07-05T00:30:56;19.10;99.90
9450;DHT22;4763;48.370;10.874;2022-07-05T00:33:23;19.00;99.90
9450;DHT22;4763;48.370;10.874;2022-07-05T00:35:50;19.00;99.90
9450;DHT22;4763;48.370;10.874;2022-07-05T00:38:17;19.00;99.90
9450;DHT22;4763;48.370;10.874;2022-07-05T00:40:44;19.00;99.90
9450;DHT22;4763;48.370;10.874;2022-07-05T00:43:11;19.10;99.90
9450;DHT22;4763;48.370;10.874;2022-07-05T00:45:40;19.10;99.90
9450;DHT22;4763;48.370;10.874;2022-07-05T00:48:07;19.10;99.90
9450;DHT22;4763;48.370;10.874;2022-07-05T00:50:34;19.10;99.90
9450;DHT22;4763;48.370;10.874;2022-07-05T00:53:01;19.10;99.90
9450;DHT22;4763;48.370;10.874;2022-07-05T00:55:28;19.10;99.90
9450;DHT22;4763;48.370;10.874;2022-07-05T00:57:55;19.20;99.90
9450;DHT22;4763;48.370;10.874;2022-07-05T01:00:22;19.10;99.90
9450;DHT22;4763;48.370;10.874;2022-07-05T01:02:51;19.10;99.90
9450;DHT22;4763;48.370;10.874;2022-07-05T01:05:19;19.10;99.90
9450;DHT22;4763;48.370;10.874;2022-07-05T01:07:46;19.10;99.90
9450;DHT22;4763;48.370;10.874;2022-07-05T01:10:13;19.00;99.90
9450;DHT22;4763;48.370;10.874;2022-07-05T01:12:40;19.00;99.90
9450;DHT22;4763;48.370;10.874;2022-07-05T01:15:08;19.00;99.90
9450;DHT22;4763;48.370;10.874;2022-07-05T01:17:35;19.10;99.90
9450;DHT22;4763;48.370;10.874;2022-07-05T01:20:06;19.10;99.90
9450;DHT22;4763;48.370;10.874;2022-07-05T01:22:50;19.00;99.90
9450;DHT22;4763;48.370;10.874;2022-07-05T01:25:20;19.10;99.90
9450;DHT22;4763;48.370;10.874;2022-07-05T01:27:47;19.00;99.90
9450;DHT22;4763;48.370;10.874;2022-07-05T01:30:14;18.90;99.90
9450;DHT22;4763;48.370;10.874;2022-07-05T01:32:42;19.00;99.90
9450;DHT22;4763;48.370;10.874;2022-07-05T01:35:09;19.00;99.90
9450;DHT22;4763;48.370;10.874;2022-07-05T01:37:37;19.00;99.90
9450;DHT22;4763;48.370;10.874;2022-07-05T01:40:06;19.00;99.90
9450;DHT22;4763;48.370;10.874;2022-07-05T01:42:33;18.90;99.90
9450;DHT22;4763;48.370;10.874;2022-07-05T01:45:00;18.90;99.90
9450;DHT22;4763;48.370;10.874;2022-07-05T01:47:27;18.90;99.90
9450;DHT22;4763;48.370;10.874;2022-07-05T01:49:57;18.80;99.90
9450;DHT22;4763;48.370;10.874;2022-07-05T01:52:24;18.80;99.90
9450;DHT22;4763;48.370;10.874;2022-07-05T01:54:53;18.80;99.90
9450;DHT22;4763;48.370;10.874;2022-07-05T01:57:22;18.80;99.90
9450;DHT22;4763;48.370;10.874;2022-07-05T01:59:49;18.70;99.90
9450;DHT22;4763;48.370;10.874;2022-07-05T02:02:16;18.70;99.90
9450;DHT22;4763;48.370;10.874;2022-07-05T02:04:42;18.70;99.90
9450;DHT22;4763;48.370;10.874;2022-07-05T02:07:10;18.70;99.90
9450;DHT22;4763;48.370;10.874;2022-07-05T02:09:39;18.70;99.90
9450;DHT22;4763;48.370;10.874;2022-07-05T02:12:06;18.60;99.90
9450;DHT22;4763;48.370;10.874;2022-07-05T02:14:35;18.60;99.90
9450;DHT22;4763;48.370;10.874;2022-07-05T02:17:02;18.60;99.90
9450;DHT22;4763;48.370;10.874;2022-07-05T02:19:29;18.60;99.90
9450;DHT22;4763;48.370;10.874;2022-07-05T02:21:56;18.60;99.90
9450;DHT22;4763;48.370;10.874;2022-07-05T02:24:23;18.50;99.90
9450;DHT22;4763;48.370;10.874;2022-07-05T02:26:50;18.50;99.90
9450;DHT22;4763;48.370;10.874;2022-07-05T02:29:17;18.50;99.90
9450;DHT22;4763;48.370;10.874;2022-07-05T02:31:46;18.50;99.90
9450;DHT22;4763;48.370;10.874;2022-07-05T02:34:13;18.50;99.90
9450;DHT22;4763;48.370;10.874;2022-07-05T02:36:40;18.40;99.90
9450;DHT22;4763;48.370;10.874;2022-07-05T02:39:07;18.40;99.90
9450;DHT22;4763;48.370;10.874;2022-07-05T02:41:34;18.30;99.90
9450;DHT22;4763;48.370;10.874;2022-07-05T02:44:01;18.30;99.90
9450;DHT22;4763;48.370;10.874;2022-07-05T02:46:28;18.30;99.90
9450;DHT22;4763;48.370;10.874;2022-07-05T02:48:56;18.40;99.90
9450;DHT22;4763;48.370;10.874;2022-07-05T02:51:23;18.40;99.90
9450;DHT22;4763;48.370;10.874;2022-07-05T02:53:50;18.50;99.90
9450;DHT22;4763;48.370;10.874;2022-07-05T02:56:17;18.50;99.90
9450;DHT22;4763;48.370;10.874;2022-07-05T02:58:44;18.50;99.90
9450;DHT22;4763;48.370;10.874;2022-07-05T03:01:11;18.50;99.90
9450;DHT22;4763;48.370;10.874;2022-07-05T03:03:38;18.50;99.90
9450;DHT22;4763;48.370;10.874;2022-07-05T03:06:06;18.50;99.90
9450;DHT22;4763;48.370;10.874;2022-07-05T03:08:33;18.50;99.90
9450;DHT22;4763;48.370;10.874;2022-07-05T03:11:01;18.50;99.90
9450;DHT22;4763;48.370;10.874;2022-07-05T03:13:27;18.50;99.90
9450;DHT22;4763;48.370;10.874;2022-07-05T03:15:54;18.50;99.90
9450;DHT22;4763;48.370;10.874;2022-07-05T03:18:21;18.50;99.90
9450;DHT22;4763;48.370;10.874;2022-07-05T03:20:48;18.40;99.90
9450;DHT22;4763;48.370;10.874;2022-07-05T03:23:17;18.40;99.90
9450;DHT22;4763;48.370;10.874;2022-07-05T03:25:43;18.40;99.90
9450;DHT22;4763;48.370;10.874;2022-07-05T03:28:11;18.30;99.90
9450;DHT22;4763;48.370;10.874;2022-07-05T03:30:38;18.30;99.90
9450;DHT22;4763;48.370;10.874;2022-07-05T03:33:05;18.30;99.90
9450;DHT22;4763;48.370;10.874;2022-07-05T03:35:32;18.30;99.90
9450;DHT22;4763;48.370;10.874;2022-07-05T03:37:58;18.30;99.90
9450;DHT22;4763;48.370;10.874;2022-07-05T03:40:27;18.30;99.90
9450;DHT22;4763;48.370;10.874;2022-07-05T03:42:54;18.30;99.90
9450;DHT22;4763;48.370;10.874;2022-07-05T03:45:20;18.30;99.90
9450;DHT22;4763;48.370;10.874;2022-07-05T03:47:48;18.20;99.90
9450;DHT22;4763;48.370;10.874;2022-07-05T03:50:15;18.20;99.90
9450;DHT22;4763;48.370;10.874;2022-07-05T03:52:42;18.20;99.90
9450;DHT22;4763;48.370;10.874;2022-07-05T03:55:09;18.20;99.90
9450;DHT22;4763;48.370;10.874;2022-07-05T03:57:37;18.20;99.90
9450;DHT22;4763;48.370;10.874;2022-07-05T04:00:05;18.20;99.90
9450;DHT22;4763;48.370;10.874;2022-07-05T04:02:32;18.10;99.90
9450;DHT22;4763;48.370;10.874;2022-07-05T04:04:59;18.10;99.90
9450;DHT22;4763;48.370;10.874;2022-07-05T04:07:26;18.10;99.90
9450;DHT22;4763;48.370;10.874;2022-07-05T04:09:53;18.10;99.90
9450;DHT22;4763;48.370;10.874;2022-07-05T04:12:20;18.10;99.90
9450;DHT22;4763;48.370;10.874;2022-07-05T04:14:48;18.00;99.90
9450;DHT22;4763;48.370;10.874;2022-07-05T04:17:15;18.00;99.90
9450;DHT22;4763;48.370;10.874;2022-07-05T04:19:42;18.00;99.90
9450;DHT22;4763;48.370;10.874;2022-07-05T04:22:47;18.10;99.90
9450;DHT22;4763;48.370;10.874;2022-07-05T06:31:26;20.10;99.90
9450;DHT22;4763;48.370;10.874;2022-07-05T06:33:55;20.30;99.90
9450;DHT22;4763;48.370;10.874;2022-07-05T06:36:22;20.60;99.90
9450;DHT22;4763;48.370;10.874;2022-07-05T06:38:49;20.50;99.90
9450;DHT22;4763;48.370;10.874;2022-07-05T06:41:16;20.50;99.90
9450;DHT22;4763;48.370;10.874;2022-07-05T06:43:43;20.50;99.90
9450;DHT22;4763;48.370;10.874;2022-07-05T06:46:10;20.60;99.90
9450;DHT22;4763;48.370;10.874;2022-07-05T06:48:39;20.70;99.90
9450;DHT22;4763;48.370;10.874;2022-07-05T06:51:06;20.80;99.90
9450;DHT22;4763;48.370;10.874;2022-07-05T06:53:34;20.90;99.90
9450;DHT22;4763;48.370;10.874;2022-07-05T06:56:01;21.00;99.90
9450;DHT22;4763;48.370;10.874;2022-07-05T06:58:30;21.20;99.90
9450;DHT22;4763;48.370;10.874;2022-07-05T07:00:57;21.10;99.90
9450;DHT22;4763;48.370;10.874;2022-07-05T07:03:24;21.30;99.90
9450;DHT22;4763;48.370;10.874;2022-07-05T07:05:53;21.40;99.90
9450;DHT22;4763;48.370;10.874;2022-07-05T07:08:21;21.50;99.90
9450;DHT22;4763;48.370;10.874;2022-07-05T07:11:05;21.70;99.90
9450;DHT22;4763;48.370;10.874;2022-07-05T07:13:32;21.90;99.90
9450;DHT22;4763;48.370;10.874;2022-07-05T07:15:59;21.80;99.90
9450;DHT22;4763;48.370;10.874;2022-07-05T07:18:27;22.00;99.90
9450;DHT22;4763;48.370;10.874;2022-07-05T07:20:55;22.10;99.90
9450;DHT22;4763;48.370;10.874;2022-07-05T07:23:23;22.20;99.90
9450;DHT22;4763;48.370;10.874;2022-07-05T07:25:50;22.40;99.90
9450;DHT22;4763;48.370;10.874;2022-07-05T07:28:18;22.50;99.90
9450;DHT22;4763;48.370;10.874;2022-07-05T07:30:45;22.70;99.90
9450;DHT22;4763;48.370;10.874;2022-07-05T07:33:12;22.80;99.90
9450;DHT22;4763;48.370;10.874;2022-07-05T07:35:39;22.80;99.90
9450;DHT22;4763;48.370;10.874;2022-07-05T07:38:07;22.90;99.90
9450;DHT22;4763;48.370;10.874;2022-07-05T07:40:34;23.10;99.90
9450;DHT22;4763;48.370;10.874;2022-07-05T07:43:02;23.20;99.90
9450;DHT22;4763;48.370;10.874;2022-07-05T07:45:29;23.20;99.90
9450;DHT22;4763;48.370;10.874;2022-07-05T07:47:57;23.40;99.90
9450;DHT22;4763;48.370;10.874;2022-07-05T07:50:25;23.30;99.90
9450;DHT22;4763;48.370;10.874;2022-07-05T07:52:52;23.00;99.90
9450;DHT22;4763;48.370;10.874;2022-07-05T07:55:20;23.00;99.90
9450;DHT22;4763;48.370;10.874;2022-07-05T07:57:47;23.30;99.90
9450;DHT22;4763;48.370;10.874;2022-07-05T08:00:15;23.40;99.90
9450;DHT22;4763;48.370;10.874;2022-07-05T08:02:42;23.50;99.90
9450;DHT22;4763;48.370;10.874;2022-07-05T08:05:09;23.60;99.90
9450;DHT22;4763;48.370;10.874;2022-07-05T08:07:36;23.50;99.90
9450;DHT22;4763;48.370;10.874;2022-07-05T08:10:04;23.70;99.90
9450;DHT22;4763;48.370;10.874;2022-07-05T08:12:33;23.80;99.90
9450;DHT22;4763;48.370;10.874;2022-07-05T08:15:00;23.80;99.90
9450;DHT22;4763;48.370;10.874;2022-07-05T08:17:27;23.70;99.90
9450;DHT22;4763;48.370;10.874;2022-07-05T08:19:54;23.80;99.90
9450;DHT22;4763;48.370;10.874;2022-07-05T08:22:39;23.60;99.90
9450;DHT22;4763;48.370;10.874;2022-07-05T08:25:06;23.40;99.90
9450;DHT22;4763;48.370;10.874;2022-07-05T08:27:35;23.40;99.90
9450;DHT22;4763;48.370;10.874;2022-07-05T08:30:03;23.50;99.90
9450;DHT22;4763;48.370;10.874;2022-07-05T08:32:31;23.70;99.90
9450;DHT22;4763;48.370;10.874;2022-07-05T08:34:59;23.60;99.90
9450;DHT22;4763;48.370;10.874;2022-07-05T08:37:30;23.60;99.90
9450;DHT22;4763;48.370;10.874;2022-07-05T08:39:57;23.70;99.90
9450;DHT22;4763;48.370;10.874;2022-07-05T08:42:24;24.00;99.90
9450;DHT22;4763;48.370;10.874;2022-07-05T08:44:55;24.20;99.90
9450;DHT22;4763;48.370;10.874;2022-07-05T08:47:24;24.50;99.90
9450;DHT22;4763;48.370;10.874;2022-07-05T08:49:52;24.70;99.90
9450;DHT22;4763;48.370;10.874;2022-07-05T08:52:20;25.00;99.90
9450;DHT22;4763;48.370;10.874;2022-07-05T08:54:47;25.40;99.90
9450;DHT22;4763;48.370;10.874;2022-07-05T08:57:14;25.40;99.90
9450;DHT22;4763;48.370;10.874;2022-07-05T08:59:42;25.70;99.90
9450;DHT22;4763;48.370;10.874;2022-07-05T09:02:13;26.10;99.90
9450;DHT22;4763;48.370;10.874;2022-07-05T09:04:44;26.10;99.90
9450;DHT22;4763;48.370;10.874;2022-07-05T09:07:14;26.30;99.90
9450;DHT22;4763;48.370;10.874;2022-07-05T09:09:42;25.90;99.90
9450;DHT22;4763;48.370;10.874;2022-07-05T09:12:12;25.90;99.90
9450;DHT22;4763;48.370;10.874;2022-07-05T09:14:40;26.10;99.90
9450;DHT22;4763;48.370;10.874;2022-07-05T09:17:07;26.40;99.90
9450;DHT22;4763;48.370;10.874;2022-07-05T09:19:36;26.70;99.90
9450;DHT22;4763;48.370;10.874;2022-07-05T09:22:04;26.80;99.90
9450;DHT22;4763;48.370;10.874;2022-07-05T09:24:42;26.50;99.90
9450;DHT22;4763;48.370;10.874;2022-07-05T09:27:10;27.00;99.90
9450;DHT22;4763;48.370;10.874;2022-07-05T09:29:37;26.50;99.90
9450;DHT22;4763;48.370;10.874;2022-07-05T09:32:05;26.10;99.90
9450;DHT22;4763;48.370;10.874;2022-07-05T09:34:32;25.90;99.90
9450;DHT22;4763;48.370;10.874;2022-07-05T09:37:03;26.40;99.90
9450;DHT22;4763;48.370;10.874;2022-07-05T09:39:38;26.70;99.90
9450;DHT22;4763;48.370;10.874;2022-07-05T09:42:14;26.60;99.90
9450;DHT22;4763;48.370;10.874;2022-07-05T09:44:44;26.30;99.40
9450;DHT22;4763;48.370;10.874;2022-07-05T09:47:13;25.90;99.90
9450;DHT22;4763;48.370;10.874;2022-07-05T09:49:42;25.60;99.90
9450;DHT22;4763;48.370;10.874;2022-07-05T09:52:25;25.30;99.90
9450;DHT22;4763;48.370;10.874;2022-07-05T09:55:01;25.30;99.90
9450;DHT22;4763;48.370;10.874;2022-07-05T09:57:29;25.20;99.90
9450;DHT22;4763;48.370;10.874;2022-07-05T10:00:00;25.20;99.90
9450;DHT22;4763;48.370;10.874;2022-07-05T10:02:35;25.70;99.90
9450;DHT22;4763;48.370;10.874;2022-07-05T10:05:10;26.00;99.90
9450;DHT22;4763;48.370;10.874;2022-07-05T10:07:40;26.60;99.90
9450;DHT22;4763;48.370;10.874;2022-07-05T10:10:11;26.90;99.90
9450;DHT22;4763;48.370;10.874;2022-07-05T10:12:39;27.20;99.20
9450;DHT22;4763;48.370;10.874;2022-07-05T10:15:09;27.40;99.90
9450;DHT22;4763;48.370;10.874;2022-07-05T10:17:40;27.50;98.20
9450;DHT22;4763;48.370;10.874;2022-07-05T10:20:15;27.90;98.20
9450;DHT22;4763;48.370;10.874;2022-07-05T10:22:46;28.10;96.00
9450;DHT22;4763;48.370;10.874;2022-07-05T10:25:13;27.40;96.20
9450;DHT22;4763;48.370;10.874;2022-07-05T10:27:42;26.80;99.10
9450;DHT22;4763;48.370;10.874;2022-07-05T10:30:10;27.10;99.70
9450;DHT22;4763;48.370;10.874;2022-07-05T10:32:38;27.70;98.70
9450;DHT22;4763;48.370;10.874;2022-07-05T10:35:07;28.10;96.30
9450;DHT22;4763;48.370;10.874;2022-07-05T10:37:35;28.10;96.10
9450;DHT22;4763;48.370;10.874;2022-07-05T10:40:05;28.00;95.50
9450;DHT22;4763;48.370;10.874;2022-07-05T10:42:37;27.90;97.70
9450;DHT22;4763;48.370;10.874;2022-07-05T10:45:24;28.30;97.20
9450;DHT22;4763;48.370;10.874;2022-07-05T10:48:17;28.30;95.80
9450;DHT22;4763;48.370;10.874;2022-07-05T10:50:52;28.40;95.30
9450;DHT22;4763;48.370;10.874;2022-07-05T10:53:20;28.50;96.20
9450;DHT22;4763;48.370;10.874;2022-07-05T10:55:54;28.70;96.30
9450;DHT22;4763;48.370;10.874;2022-07-05T10:58:26;28.90;92.70
9450;DHT22;4763;48.370;10.874;2022-07-05T11:04:06;28.70;95.70
9450;DHT22;4763;48.370;10.874;2022-07-05T11:06:40;28.70;93.30
9450;DHT22;4763;48.370;10.874;2022-07-05T11:09:14;28.90;92.50
9450;DHT22;4763;48.370;10.874;2022-07-05T11:11:44;29.10;90.60
9450;DHT22;4763;48.370;10.874;2022-07-05T11:14:34;29.10;94.10
9450;DHT22;4763;48.370;10.874;2022-07-05T11:17:23;29.30;92.70
9450;DHT22;4763;48.370;10.874;2022-07-05T11:20:14;29.20;88.70
9450;DHT22;4763;48.370;10.874;2022-07-05T11:23:02;29.20;91.50
9450;DHT22;4763;48.370;10.874;2022-07-05T11:25:32;29.20;93.50
9450;DHT22;4763;48.370;10.874;2022-07-05T11:28:05;29.60;92.70
9450;DHT22;4763;48.370;10.874;2022-07-05T11:30:45;29.50;93.40
9450;DHT22;4763;48.370;10.874;2022-07-05T11:33:31;29.80;89.60
9450;DHT22;4763;48.370;10.874;2022-07-05T11:36:01;30.00;91.00
9450;DHT22;4763;48.370;10.874;2022-07-05T11:38:29;29.60;89.50
9450;DHT22;4763;48.370;10.874;2022-07-05T11:41:10;29.30;91.70
9450;DHT22;4763;48.370;10.874;2022-07-05T11:43:40;29.30;87.80
9450;DHT22;4763;48.370;10.874;2022-07-05T11:46:08;29.20;93.00
9450;DHT22;4763;48.370;10.874;2022-07-05T11:48:35;29.40;90.60
9450;DHT22;4763;48.370;10.874;2022-07-05T11:51:13;29.60;91.00
9450;DHT22;4763;48.370;10.874;2022-07-05T11:53:41;29.90;91.90
9450;DHT22;4763;48.370;10.874;2022-07-05T11:56:10;29.60;91.00
9450;DHT22;4763;48.370;10.874;2022-07-05T11:58:38;29.70;90.50
9450;DHT22;4763;48.370;10.874;2022-07-05T12:01:05;29.70;91.50
9450;DHT22;4763;48.370;10.874;2022-07-05T12:03:33;29.80;92.10
9450;DHT22;4763;48.370;10.874;2022-07-05T12:06:10;30.20;93.00
9450;DHT22;4763;48.370;10.874;2022-07-05T12:08:38;30.30;88.10
9450;DHT22;4763;48.370;10.874;2022-07-05T12:11:05;30.30;87.70
9450;DHT22;4763;48.370;10.874;2022-07-05T12:13:51;30.30;91.30
9450;DHT22;4763;48.370;10.874;2022-07-05T12:16:18;30.30;90.60
9450;DHT22;4763;48.370;10.874;2022-07-05T12:18:53;30.10;90.70
9450;DHT22;4763;48.370;10.874;2022-07-05T12:21:21;30.20;92.00
9450;DHT22;4763;48.370;10.874;2022-07-05T12:23:49;30.20;88.90
9450;DHT22;4763;48.370;10.874;2022-07-05T12:26:17;30.30;90.00
9450;DHT22;4763;48.370;10.874;2022-07-05T12:28:45;30.50;86.40
9450;DHT22;4763;48.370;10.874;2022-07-05T12:31:19;30.30;91.10
9450;DHT22;4763;48.370;10.874;2022-07-05T12:33:46;30.50;92.20
9450;DHT22;4763;48.370;10.874;2022-07-05T12:36:16;30.50;90.70
9450;DHT22;4763;48.370;10.874;2022-07-05T12:38:43;30.50;89.80
9450;DHT22;4763;48.370;10.874;2022-07-05T12:41:10;30.80;95.00
9450;DHT22;4763;48.370;10.874;2022-07-05T12:43:51;31.30;93.10
9450;DHT22;4763;48.370;10.874;2022-07-05T12:46:21;31.50;88.50
9450;DHT22;4763;48.370;10.874;2022-07-05T12:48:52;31.50;90.60
9450;DHT22;4763;48.370;10.874;2022-07-05T12:51:32;31.10;82.90
9450;DHT22;4763;48.370;10.874;2022-07-05T12:54:00;31.30;87.60
9450;DHT22;4763;48.370;10.874;2022-07-05T12:56:49;31.10;83.60
9450;DHT22;4763;48.370;10.874;2022-07-05T12:59:34;31.40;82.40
9450;DHT22;4763;48.370;10.874;2022-07-05T13:02:04;30.90;88.60
9450;DHT22;4763;48.370;10.874;2022-07-05T13:04:31;31.30;87.00
9450;DHT22;4763;48.370;10.874;2022-07-05T13:06:59;31.60;86.00
9450;DHT22;4763;48.370;10.874;2022-07-05T13:09:31;31.20;90.60
9450;DHT22;4763;48.370;10.874;2022-07-05T13:12:06;31.40;87.30
9450;DHT22;4763;48.370;10.874;2022-07-05T13:14:34;31.70;90.80
9450;DHT22;4763;48.370;10.874;2022-07-05T13:17:03;31.40;81.10
9450;DHT22;4763;48.370;10.874;2022-07-05T13:19:30;30.70;85.30
9450;DHT22;4763;48.370;10.874;2022-07-05T13:21:57;30.40;86.30
9450;DHT22;4763;48.370;10.874;2022-07-05T13:24:24;29.90;88.30
9450;DHT22;4763;48.370;10.874;2022-07-05T13:26:51;29.70;90.00
9450;DHT22;4763;48.370;10.874;2022-07-05T13:29:19;30.00;89.00
9450;DHT22;4763;48.370;10.874;2022-07-05T13:31:46;30.00;87.10
9450;DHT22;4763;48.370;10.874;2022-07-05T13:34:14;29.60;92.30
9450;DHT22;4763;48.370;10.874;2022-07-05T13:36:41;29.70;90.40
9450;DHT22;4763;48.370;10.874;2022-07-05T13:39:08;30.20;91.80
9450;DHT22;4763;48.370;10.874;2022-07-05T13:41:35;30.20;89.50
9450;DHT22;4763;48.370;10.874;2022-07-05T13:44:02;30.40;88.10
9450;DHT22;4763;48.370;10.874;2022-07-05T13:46:29;30.80;90.00
9450;DHT22;4763;48.370;10.874;2022-07-05T13:48:56;31.20;90.10
9450;DHT22;4763;48.370;10.874;2022-07-05T13:51:24;31.10;89.50
9450;DHT22;4763;48.370;10.874;2022-07-05T13:53:51;31.20;91.00
9450;DHT22;4763;48.370;10.874;2022-07-05T13:56:18;31.50;90.80
9450;DHT22;4763;48.370;10.874;2022-07-05T13:58:45;31.30;83.40
9450;DHT22;4763;48.370;10.874;2022-07-05T14:01:12;31.50;90.30
9450;DHT22;4763;48.370;10.874;2022-07-05T14:03:39;31.40;88.10
9450;DHT22;4763;48.370;10.874;2022-07-05T14:06:06;31.60;86.80
9450;DHT22;4763;48.370;10.874;2022-07-05T14:08:35;31.60;89.70
9450;DHT22;4763;48.370;10.874;2022-07-05T14:11:02;31.50;87.40
9450;DHT22;4763;48.370;10.874;2022-07-05T14:13:29;31.30;87.20
9450;DHT22;4763;48.370;10.874;2022-07-05T14:15:56;31.20;91.50
9450;DHT22;4763;48.370;10.874;2022-07-05T14:18:24;31.40;87.40
9450;DHT22;4763;48.370;10.874;2022-07-05T14:20:51;31.10;90.70
9450;DHT22;4763;48.370;10.874;2022-07-05T14:23:18;30.80;91.30
9450;DHT22;4763;48.370;10.874;2022-07-05T14:25:47;31.40;92.00
9450;DHT22;4763;48.370;10.874;2022-07-05T14:28:14;32.00;92.50
9450;DHT22;4763;48.370;10.874;2022-07-05T14:30:42;31.50;84.00
9450;DHT22;4763;48.370;10.874;2022-07-05T14:33:09;31.50;87.20
9450;DHT22;4763;48.370;10.874;2022-07-05T14:35:37;31.70;91.30
9450;DHT22;4763;48.370;10.874;2022-07-05T14:38:04;31.90;89.60
9450;DHT22;4763;48.370;10.874;2022-07-05T14:40:33;32.00;84.50
9450;DHT22;4763;48.370;10.874;2022-07-05T14:43:03;32.30;91.20
9450;DHT22;4763;48.370;10.874;2022-07-05T14:45:32;32.60;90.60
9450;DHT22;4763;48.370;10.874;2022-07-05T14:48:02;32.70;87.70
9450;DHT22;4763;48.370;10.874;2022-07-05T14:50:36;32.80;88.60
9450;DHT22;4763;48.370;10.874;2022-07-05T14:53:03;32.70;91.20
9450;DHT22;4763;48.370;10.874;2022-07-05T14:55:34;32.50;90.00
9450;DHT22;4763;48.370;10.874;2022-07-05T14:58:02;32.10;84.10
9450;DHT22;4763;48.370;10.874;2022-07-05T15:00:29;31.50;82.90
9450;DHT22;4763;48.370;10.874;2022-07-05T15:02:56;31.40;89.10
9450;DHT22;4763;48.370;10.874;2022-07-05T15:05:23;31.40;88.90
9450;DHT22;4763;48.370;10.874;2022-07-05T15:07:50;31.80;90.20
9450;DHT22;4763;48.370;10.874;2022-07-05T15:10:17;31.90;83.90
9450;DHT22;4763;48.370;10.874;2022-07-05T15:12:44;32.00;85.60
9450;DHT22;4763;48.370;10.874;2022-07-05T15:15:13;31.90;84.60
9450;DHT22;4763;48.370;10.874;2022-07-05T15:17:40;31.70;84.30
9450;DHT22;4763;48.370;10.874;2022-07-05T15:20:08;31.90;81.90
9450;DHT22;4763;48.370;10.874;2022-07-05T15:22:36;31.60;81.00
9450;DHT22;4763;48.370;10.874;2022-07-05T15:25:04;30.70;83.50
9450;DHT22;4763;48.370;10.874;2022-07-05T15:27:32;30.10;87.00
9450;DHT22;4763;48.370;10.874;2022-07-05T15:29:59;29.70;84.30
9450;DHT22;4763;48.370;10.874;2022-07-05T15:32:27;29.50;89.60
9450;DHT22;4763;48.370;10.874;2022-07-05T15:34:54;29.30;89.70
9450;DHT22;4763;48.370;10.874;2022-07-05T15:37:21;29.20;91.50
9450;DHT22;4763;48.370;10.874;2022-07-05T15:39:48;29.00;89.00
9450;DHT22;4763;48.370;10.874;2022-07-05T15:42:16;29.00;89.40
9450;DHT22;4763;48.370;10.874;2022-07-05T15:44:45;28.60;90.30
9450;DHT22;4763;48.370;10.874;2022-07-05T15:47:12;28.50;90.90
9450;DHT22;4763;48.370;10.874;2022-07-05T15:49:42;28.40;90.00
9450;DHT22;4763;48.370;10.874;2022-07-05T15:52:09;28.30;87.90
9450;DHT22;4763;48.370;10.874;2022-07-05T15:54:37;28.90;89.90
9450;DHT22;4763;48.370;10.874;2022-07-05T15:57:04;29.20;86.70
9450;DHT22;4763;48.370;10.874;2022-07-05T15:59:31;28.60;90.30
9450;DHT22;4763;48.370;10.874;2022-07-05T16:01:58;28.30;90.30
9450;DHT22;4763;48.370;10.874;2022-07-05T16:04:26;28.10;88.70
9450;DHT22;4763;48.370;10.874;2022-07-05T16:06:56;28.50;90.80
9450;DHT22;4763;48.370;10.874;2022-07-05T16:09:24;29.00;88.50
9450;DHT22;4763;48.370;10.874;2022-07-05T16:11:51;29.50;90.40
9450;DHT22;4763;48.370;10.874;2022-07-05T16:14:19;29.70;85.80
9450;DHT22;4763;48.370;10.874;2022-07-05T16:16:45;30.00;90.50
9450;DHT22;4763;48.370;10.874;2022-07-05T16:19:12;30.00;85.70
9450;DHT22;4763;48.370;10.874;2022-07-05T16:21:40;29.80;86.80
9450;DHT22;4763;48.370;10.874;2022-07-05T16:24:08;29.60;85.20
9450;DHT22;4763;48.370;10.874;2022-07-05T16:26:35;29.50;87.30
9450;DHT22;4763;48.370;10.874;2022-07-05T16:29:06;29.30;84.30
9450;DHT22;4763;48.370;10.874;2022-07-05T16:31:33;29.10;84.50
9450;DHT22;4763;48.370;10.874;2022-07-05T16:34:00;28.70;88.10
9450;DHT22;4763;48.370;10.874;2022-07-05T16:36:27;28.80;86.00
9450;DHT22;4763;48.370;10.874;2022-07-05T16:38:54;28.70;85.00
9450;DHT22;4763;48.370;10.874;2022-07-05T16:41:23;28.50;83.30
9450;DHT22;4763;48.370;10.874;2022-07-05T16:43:50;28.50;85.20
9450;DHT22;4763;48.370;10.874;2022-07-05T16:46:18;28.70;84.60
9450;DHT22;4763;48.370;10.874;2022-07-05T16:48:46;28.90;88.50
9450;DHT22;4763;48.370;10.874;2022-07-05T16:51:15;29.10;82.30
9450;DHT22;4763;48.370;10.874;2022-07-05T16:53:42;29.40;84.70
9450;DHT22;4763;48.370;10.874;2022-07-05T16:56:11;29.60;82.80
9450;DHT22;4763;48.370;10.874;2022-07-05T16:58:41;29.30;82.70
9450;DHT22;4763;48.370;10.874;2022-07-05T17:01:09;29.10;81.80
9450;DHT22;4763;48.370;10.874;2022-07-05T17:03:37;29.10;84.30
9450;DHT22;4763;48.370;10.874;2022-07-05T17:06:04;29.10;82.50
9450;DHT22;4763;48.370;10.874;2022-07-05T17:08:32;29.10;84.70
9450;DHT22;4763;48.370;10.874;2022-07-05T17:10:59;29.10;80.40
9450;DHT22;4763;48.370;10.874;2022-07-05T17:13:26;29.10;85.70
9450;DHT22;4763;48.370;10.874;2022-07-05T17:15:55;28.90;81.70
9450;DHT22;4763;48.370;10.874;2022-07-05T17:18:22;28.60;80.90
9450;DHT22;4763;48.370;10.874;2022-07-05T17:20:49;28.10;80.90
9450;DHT22;4763;48.370;10.874;2022-07-05T17:23:17;27.50;80.60
9450;DHT22;4763;48.370;10.874;2022-07-05T17:25:44;27.40;81.00
9450;DHT22;4763;48.370;10.874;2022-07-05T17:28:12;27.30;81.40
9450;DHT22;4763;48.370;10.874;2022-07-05T17:30:39;27.20;83.10
9450;DHT22;4763;48.370;10.874;2022-07-05T17:33:07;27.10;83.70
9450;DHT22;4763;48.370;10.874;2022-07-05T17:35:35;26.90;81.50
9450;DHT22;4763;48.370;10.874;2022-07-05T17:38:02;26.70;83.00
9450;DHT22;4763;48.370;10.874;2022-07-05T17:40:36;26.60;83.10
9450;DHT22;4763;48.370;10.874;2022-07-05T17:43:12;26.50;84.00
9450;DHT22;4763;48.370;10.874;2022-07-05T17:45:40;26.30;82.50
9450;DHT22;4763;48.370;10.874;2022-07-05T17:48:12;26.20;84.20
9450;DHT22;4763;48.370;10.874;2022-07-05T17:50:40;26.00;82.70
9450;DHT22;4763;48.370;10.874;2022-07-05T17:53:34;26.00;84.40
9450;DHT22;4763;48.370;10.874;2022-07-05T17:56:18;25.90;85.50
9450;DHT22;4763;48.370;10.874;2022-07-05T18:02:57;25.70;83.40
9450;DHT22;4763;48.370;10.874;2022-07-05T18:05:28;25.50;83.90
9450;DHT22;4763;48.370;10.874;2022-07-05T18:08:08;25.60;83.90
9450;DHT22;4763;48.370;10.874;2022-07-05T18:10:46;25.40;81.60